createdAt,value
2017-10-28T00:00:25.561Z,71.4
2017-10-28T00:10:38.892Z,71.6
2017-10-28T00:20:57.862Z,71.6
2017-10-28T00:31:21.313Z,71.5
2017-10-28T00:42:06.121Z,72.7
2017-10-28T00:52:19.554Z,72.3
2017-10-28T01:02:30.883Z,72.6
2017-10-28T01:12:44.217Z,72.4
2017-10-28T01:22:58.554Z,72.3
2017-10-28T01:33:54.894Z,72.5
2017-10-28T01:45:11.462Z,72.4
2017-10-28T01:55:29.974Z,72.4
2017-10-28T02:05:48.309Z,72.6
2017-10-28T02:15:59.955Z,72.2
2017-10-28T02:26:14.131Z,72.2
2017-10-28T02:36:28.414Z,72.3
2017-10-28T02:46:40.839Z,72.5
2017-10-28T02:56:54.626Z,72.9
2017-10-28T03:21:08.127Z,72.7
2017-10-28T03:31:53.791Z,72.7
2017-10-28T03:42:39.707Z,72.7
2017-10-28T03:53:25.228Z,72.6
2017-10-28T04:03:38.569Z,72.6
2017-10-28T04:14:27.512Z,73.0
2017-10-28T04:24:42.744Z,72.8
2017-10-28T04:35:29.108Z,73.0
2017-10-28T04:45:41.798Z,73.5
2017-10-28T04:55:59.551Z,73.5
2017-10-28T05:08:19.769Z,74.1
2017-10-28T05:18:54.844Z,74.0
2017-10-28T05:29:27.853Z,74.0
2017-10-28T05:39:42.632Z,74.2
2017-10-28T05:50:27.223Z,75.2
2017-10-28T06:14:05.736Z,74.1
2017-10-28T06:25:00.603Z,74.2
2017-10-28T06:35:47.714Z,75.1
2017-10-28T06:46:01.580Z,74.9
2017-10-28T06:56:46.170Z,74.6
2017-10-28T07:07:33.376Z,75.0
2017-10-28T07:18:18.335Z,74.7
2017-10-28T07:29:07.356Z,74.3
2017-10-28T07:39:21.687Z,75.0
2017-10-28T07:50:38.146Z,75.0
2017-10-28T08:01:23.498Z,74.3
2017-10-28T08:12:10.447Z,74.5
2017-10-28T08:22:22.394Z,74.2
2017-10-28T08:33:09.537Z,73.9
2017-10-28T08:43:22.841Z,74.0
2017-10-28T08:53:36.091Z,74.1
2017-10-28T09:03:49.753Z,74.0
2017-10-28T09:14:47.583Z,73.8
2017-10-28T09:25:01.592Z,73.6
2017-10-28T09:35:15.790Z,73.4
2017-10-28T09:46:01.600Z,73.3
2017-10-28T09:56:50.176Z,73.0
2017-10-28T10:07:35.439Z,72.8
2017-10-28T10:17:49.366Z,72.7
2017-10-28T10:28:35.173Z,72.8
2017-10-28T10:39:20.739Z,72.8
2017-10-28T10:49:35.032Z,72.7
2017-10-28T10:59:49.105Z,72.6
2017-10-28T11:10:03.354Z,72.5
2017-10-28T11:20:17.579Z,72.4
2017-10-28T11:30:32.047Z,72.4
2017-10-28T11:40:43.936Z,72.4
2017-10-28T11:50:58.239Z,72.4
2017-10-28T12:01:13.952Z,72.3
2017-10-28T12:12:08.066Z,72.5
2017-10-28T12:22:25.888Z,72.4
2017-10-28T12:32:43.995Z,72.6
2017-10-28T12:43:02.985Z,72.5
2017-10-28T12:53:18.164Z,72.4
2017-10-28T13:04:16.932Z,72.2
2017-10-28T13:14:42.512Z,72.1
2017-10-28T13:24:58.356Z,72.0
2017-10-28T13:35:18.681Z,72.0
2017-10-28T13:46:13.394Z,72.2
2017-10-28T13:56:33.228Z,72.1
2017-10-28T14:06:47.244Z,72.2
2017-10-28T14:16:59.132Z,72.2
2017-10-28T14:27:46.977Z,72.2
2017-10-28T14:38:35.661Z,71.9
2017-10-28T14:48:48.979Z,72.2
2017-10-28T14:59:01.089Z,72.6
2017-10-28T15:09:14.601Z,72.5
2017-10-28T15:19:28.958Z,73.1
2017-10-28T15:29:43.711Z,73.4
2017-10-28T15:39:57.637Z,73.7
2017-10-28T15:50:43.315Z,74.7
2017-10-28T16:01:31.958Z,75.8
2017-10-28T16:11:46.180Z,76.0
2017-10-28T16:22:30.779Z,76.3
2017-10-28T16:33:18.865Z,76.9
2017-10-28T16:44:04.376Z,77.7
2017-10-28T16:54:15.741Z,78.3
2017-10-28T17:05:05.420Z,79.0
2017-10-28T17:15:22.187Z,78.5
2017-10-28T17:25:41.896Z,78.5
2017-10-28T17:35:57.863Z,79.0
2017-10-28T17:46:13.703Z,79.9
2017-10-28T17:57:02.163Z,80.1
2017-10-28T18:08:06.731Z,80.0
2017-10-28T18:18:27.399Z,79.8
2017-10-28T18:28:45.826Z,80.0
2017-10-28T18:39:04.601Z,79.9
2017-10-28T18:50:02.539Z,79.9
2017-10-28T19:12:02.479Z,78.2
2017-10-28T19:22:51.170Z,78.7
2017-10-28T19:33:17.834Z,79.5
2017-10-28T19:43:35.076Z,80.3
2017-10-28T19:54:29.722Z,80.4
2017-10-28T20:05:21.589Z,80.6
2017-10-28T20:16:12.788Z,80.5
2017-10-28T20:26:57.833Z,80.7
2017-10-28T20:37:46.739Z,80.6
2017-10-28T20:51:44.971Z,81.1
2017-10-28T21:02:30.764Z,80.1
2017-10-28T21:13:18.940Z,80.9
2017-10-28T21:24:07.880Z,81.4
2017-10-28T21:34:21.280Z,81.2
2017-10-28T21:45:06.938Z,81.3
2017-10-28T21:55:20.313Z,81.1
2017-10-28T22:06:05.752Z,81.3
2017-10-28T22:16:19.192Z,81.1
2017-10-28T22:40:07.657Z,81.1
2017-10-28T22:50:52.353Z,81.3
2017-10-28T23:01:37.149Z,81.1
2017-10-28T23:12:24.872Z,80.9
2017-10-28T23:23:09.726Z,80.8
2017-10-28T23:33:21.105Z,81.1
2017-10-28T23:43:32.633Z,80.9
2017-10-28T23:53:47.051Z,80.7
